Time;durP1;ratioP1;P1;durP2;ratioP2;P2;SDS_P1;SDS_P2;PMS_P1;PMS_P2;Temp;Humidity;BMP_temperature;BMP_pressure;BME280_temperature;BME280_humidity;BME280_pressure;Samples;Min_cycle;Max_cycle;Signal;HPM_P1;HPM_P2
2022/01/13 00:00:29;;;;;;;0.13;0.10;;;;;;;;;;5032572;28;20041;-61
2022/01/13 00:02:55;;;;;;;0.25;0.15;;;;;;;;;;5032533;28;20521;-62
2022/01/13 00:05:26;;;;;;;0.97;0.20;;;;;;;;;;5032027;28;20049;-61
2022/01/13 00:07:55;;;;;;;0.30;0.20;;;;;;;;;;5031576;28;20265;-62
2022/01/13 00:10:20;;;;;;;0.68;0.20;;;;;;;;;;5032353;28;20013;-61
2022/01/13 00:12:45;;;;;;;1.05;0.20;;;;;;;;;;5032507;28;20481;-61
2022/01/13 00:15:24;;;;;;;0.52;0.10;;;;;;;;;;5032211;28;20021;-61
2022/01/13 00:25:34;;;;;;;0.43;0.20;;;;;;;;;;4951687;29;20047;-61
2022/01/13 00:28:03;;;;;;;0.45;0.00;;;;;;;;;;4951477;29;20086;-61
2022/01/13 00:30:28;;;;;;;0.98;0.20;;;;;;;;;;4951794;29;20031;-62
2022/01/13 00:32:53;;;;;;;1.17;0.23;;;;;;;;;;4951828;29;20534;-61
2022/01/13 00:35:18;;;;;;;0.60;0.22;;;;;;;;;;4951542;29;20115;-61
2022/01/13 00:37:44;;;;;;;0.37;0.20;;;;;;;;;;4951529;29;20068;-61
2022/01/13 00:40:10;;;;;;;0.73;0.25;;;;;;;;;;4951611;29;20451;-62
2022/01/13 00:42:36;;;;;;;1.23;0.50;;;;;;;;;;4951643;29;20454;-62
2022/01/13 00:45:03;;;;;;;0.30;0.20;;;;;;;;;;4951543;29;20151;-62
2022/01/13 00:47:29;;;;;;;0.20;0.10;;;;;;;;;;4951654;29;20273;-61
2022/01/13 00:49:57;;;;;;;0.52;0.20;;;;;;;;;;4951418;29;20509;-61
2022/01/13 00:52:22;;;;;;;0.30;0.10;;;;;;;;;;4951601;29;20031;-61
2022/01/13 00:54:47;;;;;;;0.30;0.10;;;;;;;;;;4951681;29;20038;-61
2022/01/13 00:57:12;;;;;;;0.60;0.40;;;;;;;;;;4951311;29;20039;-60
2022/01/13 00:59:38;;;;;;;0.35;0.15;;;;;;;;;;4951405;29;20267;-61
2022/01/13 01:02:03;;;;;;;0.13;0.05;;;;;;;;;;4981314;28;20030;-60
2022/01/13 01:04:28;;;;;;;0.68;0.10;;;;;;;;;;5031679;28;20053;-61
2022/01/13 01:06:53;;;;;;;0.30;0.17;;;;;;;;;;5031912;28;20071;-61
2022/01/13 01:12:02;;;;;;;0.87;0.10;;;;;;;;;;5031901;28;20040;-61
2022/01/13 01:14:31;;;;;;;0.20;0.10;;;;;;;;;;5031718;28;20711;-62
2022/01/13 01:16:56;;;;;;;0.88;0.22;;;;;;;;;;5031678;28;20013;-61
2022/01/13 01:19:27;;;;;;;0.60;0.20;;;;;;;;;;5033001;28;20108;-60
2022/01/13 01:22:16;;;;;;;0.45;0.10;;;;;;;;;;5035320;28;20246;-61
2022/01/13 01:25:00;;;;;;;0.45;0.00;;;;;;;;;;5035337;28;20048;-61
2022/01/13 01:27:33;;;;;;;0.15;0.05;;;;;;;;;;5035325;28;20358;-62
2022/01/13 01:30:44;;;;;;;0.05;0.05;;;;;;;;;;5035204;28;20021;-61
2022/01/13 01:32:47;;;;;;;0.60;0.10;;;;;;;;;;5032218;28;20044;-60
2022/01/13 01:35:14;;;;;;;0.45;0.03;;;;;;;;;;5035104;28;20024;-61
2022/01/13 01:37:40;;;;;;;0.10;0.10;;;;;;;;;;5035023;28;20047;-61
2022/01/13 01:40:06;;;;;;;1.73;0.28;;;;;;;;;;5034979;28;20396;-61
2022/01/13 01:42:31;;;;;;;0.30;0.20;;;;;;;;;;5035069;28;20017;-60
2022/01/13 01:44:58;;;;;;;0.30;0.20;;;;;;;;;;5035079;28;20032;-61
2022/01/13 01:47:25;;;;;;;0.28;0.10;;;;;;;;;;5034922;28;20022;-61
2022/01/13 01:49:53;;;;;;;0.38;0.13;;;;;;;;;;5034866;28;20100;-62
2022/01/13 01:52:19;;;;;;;1.38;0.10;;;;;;;;;;5034862;28;20017;-61
2022/01/13 01:54:45;;;;;;;0.20;0.20;;;;;;;;;;5034778;28;20029;-60
2022/01/13 01:57:10;;;;;;;0.63;0.05;;;;;;;;;;5034479;28;20034;-60
2022/01/13 01:59:39;;;;;;;0.40;0.20;;;;;;;;;;5034750;28;20044;-61
2022/01/13 02:02:04;;;;;;;1.55;0.40;;;;;;;;;;5034214;28;20010;-61
2022/01/13 02:04:30;;;;;;;0.35;0.10;;;;;;;;;;5050142;23;20530;-60
2022/01/13 02:06:56;;;;;;;0.35;0.10;;;;;;;;;;5054613;28;20460;-60
2022/01/13 02:09:22;;;;;;;0.30;0.10;;;;;;;;;;5054324;28;20096;-62
2022/01/13 02:11:52;;;;;;;0.60;0.00;;;;;;;;;;5054357;28;20074;-61
2022/01/13 02:14:49;;;;;;;1.00;0.20;;;;;;;;;;5054309;28;20479;-62
2022/01/13 02:17:10;;;;;;;0.28;0.13;;;;;;;;;;5033903;28;20052;-61
2022/01/13 02:19:42;;;;;;;0.30;0.10;;;;;;;;;;5033393;28;20369;-61
2022/01/13 02:22:08;;;;;;;0.10;0.10;;;;;;;;;;5034294;28;20056;-61
2022/01/13 02:24:34;;;;;;;0.25;0.05;;;;;;;;;;5034430;28;20053;-61
2022/01/13 02:26:59;;;;;;;0.25;0.20;;;;;;;;;;5034199;28;20018;-61
2022/01/13 02:29:24;;;;;;;0.30;0.20;;;;;;;;;;5032918;28;20024;-60
2022/01/13 02:31:51;;;;;;;0.20;0.10;;;;;;;;;;5033305;28;20018;-61
2022/01/13 02:34:17;;;;;;;0.38;0.10;;;;;;;;;;5034035;28;20504;-61
2022/01/13 02:36:43;;;;;;;0.70;0.00;;;;;;;;;;5034240;28;20040;-61
2022/01/13 02:39:08;;;;;;;0.47;0.10;;;;;;;;;;5032803;28;20449;-61
2022/01/13 02:41:33;;;;;;;0.40;0.05;;;;;;;;;;5034529;28;20031;-60
2022/01/13 02:43:59;;;;;;;0.30;0.15;;;;;;;;;;5053743;28;20021;-61
2022/01/13 02:49:09;;;;;;;0.20;0.10;;;;;;;;;;5053980;28;20029;-61
2022/01/13 02:51:35;;;;;;;0.35;0.20;;;;;;;;;;5053691;28;20072;-61
2022/01/13 02:54:00;;;;;;;0.08;0.00;;;;;;;;;;5052222;28;20021;-61
2022/01/13 02:56:26;;;;;;;0.47;0.10;;;;;;;;;;5053999;28;20361;-61
2022/01/13 02:58:51;;;;;;;0.13;0.03;;;;;;;;;;5053598;28;20464;-60
2022/01/13 03:01:16;;;;;;;0.60;0.20;;;;;;;;;;5053349;28;20460;-62
2022/01/13 03:03:43;;;;;;;0.40;0.00;;;;;;;;;;5053164;28;20388;-62
2022/01/13 03:06:09;;;;;;;0.20;0.15;;;;;;;;;;5053388;28;20021;-61
2022/01/13 03:08:38;;;;;;;0.20;0.03;;;;;;;;;;5053335;28;20029;-62
2022/01/13 03:11:03;;;;;;;0.30;0.10;;;;;;;;;;5051915;28;20021;-62
2022/01/13 03:13:30;;;;;;;0.90;0.10;;;;;;;;;;5053586;28;20021;-62
2022/01/13 03:15:55;;;;;;;1.73;0.47;;;;;;;;;;5053077;28;20480;-61
2022/01/13 03:18:20;;;;;;;0.22;0.05;;;;;;;;;;5052890;28;20030;-61
2022/01/13 03:20:45;;;;;;;0.07;0.00;;;;;;;;;;5053335;28;20092;-62
2022/01/13 03:23:15;;;;;;;0.13;0.07;;;;;;;;;;5052040;28;20029;-60
2022/01/13 03:25:44;;;;;;;0.30;0.00;;;;;;;;;;5053001;28;20257;-61
2022/01/13 03:28:14;;;;;;;0.08;0.00;;;;;;;;;;5052994;28;20017;-62
2022/01/13 03:30:40;;;;;;;0.52;0.00;;;;;;;;;;5053104;28;20033;-61
2022/01/13 03:33:06;;;;;;;0.37;0.17;;;;;;;;;;5052769;28;20028;-61
2022/01/13 03:35:31;;;;;;;0.30;0.10;;;;;;;;;;5052891;28;20254;-60
2022/01/13 03:37:58;;;;;;;0.40;0.20;;;;;;;;;;5052639;28;20048;-60
2022/01/13 03:40:23;;;;;;;1.20;0.20;;;;;;;;;;5052805;28;20033;-61
2022/01/13 03:42:52;;;;;;;1.48;0.00;;;;;;;;;;5052767;28;20009;-60
2022/01/13 03:45:17;;;;;;;0.20;0.10;;;;;;;;;;5052574;28;20021;-62
2022/01/13 03:47:42;;;;;;;0.73;0.10;;;;;;;;;;5052568;28;20024;-61
2022/01/13 03:50:08;;;;;;;0.75;0.20;;;;;;;;;;5052510;28;20420;-60
2022/01/13 03:52:33;;;;;;;0.03;0.00;;;;;;;;;;5052673;28;20039;-61
2022/01/13 03:55:17;;;;;;;0.10;0.00;;;;;;;;;;5052534;28;20099;-63
2022/01/13 03:58:10;;;;;;;0.20;0.10;;;;;;;;;;5052406;28;20044;-62
2022/01/13 04:01:05;;;;;;;0.13;0.08;;;;;;;;;;5052861;28;20006;-61
2022/01/13 04:03:31;;;;;;;;;;;;;;;;;;5052776;28;20218;-61
2022/01/13 04:06:01;;;;;;;0.10;0.00;;;;;;;;;;5052144;28;19924;-62
2022/01/13 04:08:27;;;;;;;0.20;0.00;;;;;;;;;;5052394;28;20353;-61
2022/01/13 04:11:04;;;;;;;0.03;0.00;;;;;;;;;;5052486;28;20090;-61
2022/01/13 04:16:18;;;;;;;0.35;0.03;;;;;;;;;;5052402;28;20025;-61
2022/01/13 04:18:44;;;;;;;0.30;0.00;;;;;;;;;;5052251;28;20021;-62
2022/01/13 04:21:10;;;;;;;0.28;0.05;;;;;;;;;;5052025;28;20086;-61
2022/01/13 04:23:35;;;;;;;0.70;0.20;;;;;;;;;;5052139;28;20465;-61
2022/01/13 04:26:05;;;;;;;0.32;0.00;;;;;;;;;;5051933;28;20096;-62
2022/01/13 04:28:30;;;;;;;0.47;0.00;;;;;;;;;;5052200;28;20024;-61
2022/01/13 04:31:01;;;;;;;0.30;0.00;;;;;;;;;;5052111;28;20017;-61
2022/01/13 04:33:30;;;;;;;0.20;0.00;;;;;;;;;;5052009;28;20249;-60
2022/01/13 04:35:56;;;;;;;0.00;0.00;;;;;;;;;;5051899;28;20075;-61
2022/01/13 04:38:21;;;;;;;1.08;0.10;;;;;;;;;;5051848;28;20025;-61
2022/01/13 04:40:49;;;;;;;0.10;0.00;;;;;;;;;;5052158;28;20017;-61
2022/01/13 04:43:14;;;;;;;0.10;0.10;;;;;;;;;;5051704;28;20280;-61
2022/01/13 04:45:40;;;;;;;0.10;0.10;;;;;;;;;;5051898;28;20060;-62
2022/01/13 04:48:05;;;;;;;0.55;0.10;;;;;;;;;;5051697;28;20262;-61
2022/01/13 04:50:31;;;;;;;0.70;0.00;;;;;;;;;;5052008;28;20512;-61
2022/01/13 04:52:56;;;;;;;0.10;0.10;;;;;;;;;;5052189;28;20013;-61
2022/01/13 04:55:24;;;;;;;0.45;0.20;;;;;;;;;;5054856;28;20021;-61
2022/01/13 04:57:50;;;;;;;0.20;0.20;;;;;;;;;;5055840;28;20032;-61
2022/01/13 05:00:16;;;;;;;0.10;0.00;;;;;;;;;;5056097;28;20013;-60
2022/01/13 05:02:41;;;;;;;0.10;0.00;;;;;;;;;;5055961;28;20456;-62
2022/01/13 05:05:06;;;;;;;0.13;0.00;;;;;;;;;;5055404;28;20365;-62
2022/01/13 05:07:32;;;;;;;0.25;0.10;;;;;;;;;;5055722;28;20024;-61
2022/01/13 05:09:57;;;;;;;0.55;0.08;;;;;;;;;;5055522;28;20376;-62
2022/01/13 05:12:28;;;;;;;0.40;0.15;;;;;;;;;;5055676;28;20041;-60
2022/01/13 05:14:57;;;;;;;0.70;0.10;;;;;;;;;;5055609;28;20074;-61
2022/01/13 05:17:47;;;;;;;0.17;0.05;;;;;;;;;;5055334;28;20021;-61
2022/01/13 05:20:14;;;;;;;0.73;0.20;;;;;;;;;;5055216;28;20025;-60
2022/01/13 05:22:39;;;;;;;0.38;0.20;;;;;;;;;;5055562;28;20403;-61
2022/01/13 05:25:05;;;;;;;1.25;0.10;;;;;;;;;;5055228;28;20036;-62
2022/01/13 05:27:30;;;;;;;0.30;0.13;;;;;;;;;;5055251;28;20401;-61
2022/01/13 05:29:55;;;;;;;0.10;0.10;;;;;;;;;;5055203;28;20362;-61
2022/01/13 05:32:20;;;;;;;0.97;0.10;;;;;;;;;;5055243;28;20036;-61
2022/01/13 05:34:45;;;;;;;1.50;0.10;;;;;;;;;;5055330;28;20250;-61
2022/01/13 05:37:11;;;;;;;0.38;0.00;;;;;;;;;;5054940;28;20268;-61
2022/01/13 05:39:36;;;;;;;0.60;0.03;;;;;;;;;;5055376;28;20028;-61
2022/01/13 05:42:01;;;;;;;0.80;0.10;;;;;;;;;;5054841;28;20056;-60
2022/01/13 05:44:26;;;;;;;0.28;0.10;;;;;;;;;;5055349;28;20246;-61
2022/01/13 05:46:51;;;;;;;0.17;0.10;;;;;;;;;;5055133;28;20028;-61
2022/01/13 05:49:17;;;;;;;1.10;0.10;;;;;;;;;;5055070;28;20254;-61
2022/01/13 05:51:42;;;;;;;0.17;0.00;;;;;;;;;;5054904;28;20028;-61
2022/01/13 05:54:07;;;;;;;0.57;0.00;;;;;;;;;;5054735;28;20261;-60
2022/01/13 05:56:32;;;;;;;0.25;0.10;;;;;;;;;;5054933;28;20250;-62
2022/01/13 05:58:57;;;;;;;0.30;0.00;;;;;;;;;;5054723;28;20468;-62
2022/01/13 06:01:23;;;;;;;0.20;0.10;;;;;;;;;;5054433;28;20460;-61
2022/01/13 06:03:48;;;;;;;0.32;0.08;;;;;;;;;;5054376;28;20025;-60
2022/01/13 06:06:13;;;;;;;0.10;0.00;;;;;;;;;;5053319;28;20040;-61
2022/01/13 06:08:38;;;;;;;0.00;0.00;;;;;;;;;;5054721;28;20254;-60
2022/01/13 06:11:03;;;;;;;0.93;0.10;;;;;;;;;;5054371;28;20056;-62
2022/01/13 06:13:28;;;;;;;0.30;0.20;;;;;;;;;;5054474;28;20021;-61
2022/01/13 06:15:53;;;;;;;0.22;0.10;;;;;;;;;;5054326;28;20277;-62
2022/01/13 06:18:19;;;;;;;0.10;0.08;;;;;;;;;;5053080;28;20025;-62
2022/01/13 06:20:44;;;;;;;0.00;0.00;;;;;;;;;;5054371;28;20013;-61
2022/01/13 06:23:11;;;;;;;0.35;0.05;;;;;;;;;;5054162;28;20337;-61
2022/01/13 06:25:36;;;;;;;0.65;0.10;;;;;;;;;;5054259;28;20017;-61
2022/01/13 06:28:02;;;;;;;0.25;0.00;;;;;;;;;;5054025;28;20021;-61
2022/01/13 06:30:28;;;;;;;0.15;0.05;;;;;;;;;;5054115;28;20476;-61
2022/01/13 06:32:53;;;;;;;0.00;0.00;;;;;;;;;;5054258;28;20071;-62
2022/01/13 06:35:18;;;;;;;0.50;0.20;;;;;;;;;;5053946;28;20033;-61
2022/01/13 06:37:43;;;;;;;0.10;0.03;;;;;;;;;;5053858;28;20465;-61
2022/01/13 06:40:10;;;;;;;0.73;0.45;;;;;;;;;;5053861;28;20329;-62
2022/01/13 06:42:35;;;;;;;1.13;0.15;;;;;;;;;;5053993;28;20457;-60
2022/01/13 06:45:00;;;;;;;0.15;0.15;;;;;;;;;;5054346;28;20029;-62
2022/01/13 06:47:26;;;;;;;0.10;0.03;;;;;;;;;;5053855;28;20439;-61
2022/01/13 06:49:51;;;;;;;0.15;0.10;;;;;;;;;;5053700;28;20265;-62
2022/01/13 06:52:17;;;;;;;1.63;0.10;;;;;;;;;;5052382;28;20570;-62
2022/01/13 06:54:42;;;;;;;0.55;0.15;;;;;;;;;;5053670;28;20086;-63
2022/01/13 06:57:08;;;;;;;0.75;0.10;;;;;;;;;;5051332;28;20057;-61
2022/01/13 06:59:33;;;;;;;0.10;0.10;;;;;;;;;;5054157;28;20040;-60
2022/01/13 07:02:00;;;;;;;0.25;0.10;;;;;;;;;;5060217;28;20031;-61
2022/01/13 07:04:27;;;;;;;0.32;0.00;;;;;;;;;;5073353;28;20083;-63
2022/01/13 07:06:52;;;;;;;1.48;0.10;;;;;;;;;;5059532;28;20063;-62
2022/01/13 07:09:17;;;;;;;0.25;0.10;;;;;;;;;;5060150;28;20459;-62
2022/01/13 07:11:43;;;;;;;0.25;0.22;;;;;;;;;;5052742;28;20092;-63
2022/01/13 07:14:08;;;;;;;0.50;0.10;;;;;;;;;;5049834;28;20068;-62
2022/01/13 07:16:34;;;;;;;0.85;0.10;;;;;;;;;;5052144;28;20040;-61
2022/01/13 07:18:59;;;;;;;0.40;0.10;;;;;;;;;;5052849;28;20021;-62
2022/01/13 07:21:27;;;;;;;0.28;0.10;;;;;;;;;;5051911;28;20062;-61
2022/01/13 07:23:53;;;;;;;0.00;0.00;;;;;;;;;;5052072;28;20058;-61
2022/01/13 07:26:18;;;;;;;0.10;0.08;;;;;;;;;;5061178;28;20441;-60
2022/01/13 07:28:43;;;;;;;0.40;0.13;;;;;;;;;;5073156;28;20028;-62
2022/01/13 07:31:08;;;;;;;0.00;0.00;;;;;;;;;;5058032;28;20029;-60
2022/01/13 07:33:33;;;;;;;0.23;0.00;;;;;;;;;;5050715;28;20472;-61
2022/01/13 07:35:58;;;;;;;0.20;0.00;;;;;;;;;;5052029;28;20278;-61
2022/01/13 07:38:24;;;;;;;0.20;0.10;;;;;;;;;;5051890;28;20296;-61
2022/01/13 07:40:49;;;;;;;0.10;0.10;;;;;;;;;;5051468;28;20352;-61
2022/01/13 07:43:21;;;;;;;0.80;0.10;;;;;;;;;;5050645;28;20539;-60
2022/01/13 07:45:47;;;;;;;0.80;0.10;;;;;;;;;;5047866;28;20017;-61
2022/01/13 07:48:12;;;;;;;0.10;0.10;;;;;;;;;;5049608;28;20044;-59
2022/01/13 07:50:37;;;;;;;0.10;0.00;;;;;;;;;;5051103;28;20013;-59
2022/01/13 07:53:02;;;;;;;1.23;0.00;;;;;;;;;;5049077;28;20310;-59
2022/01/13 07:55:27;;;;;;;0.30;0.10;;;;;;;;;;5049676;28;20284;-60
2022/01/13 07:57:53;;;;;;;0.87;0.00;;;;;;;;;;5042067;28;20036;-60
2022/01/13 08:00:18;;;;;;;0.25;0.20;;;;;;;;;;5051172;28;20269;-59
2022/01/13 08:02:43;;;;;;;2.00;0.10;;;;;;;;;;5050501;28;20059;-60
2022/01/13 08:05:08;;;;;;;0.20;0.10;;;;;;;;;;5050688;28;20052;-60
2022/01/13 08:07:33;;;;;;;0.30;0.03;;;;;;;;;;5050141;28;20656;-60
2022/01/13 08:09:59;;;;;;;0.73;0.10;;;;;;;;;;5046584;28;20059;-68
2022/01/13 08:12:24;;;;;;;1.10;0.20;;;;;;;;;;5054177;28;20268;-68
2022/01/13 08:14:50;;;;;;;0.35;0.00;;;;;;;;;;5045989;28;20041;-67
2022/01/13 08:19:45;;;;;;;0.25;0.20;;;;;;;;;;5048594;28;20035;-67
2022/01/13 08:20:04;;;;;;;0.40;0.20;;;;;;;;;;5049547;28;20099;-67
2022/01/13 08:22:29;;;;;;;0.45;0.22;;;;;;;;;;5051348;28;20017;-68
2022/01/13 08:24:54;;;;;;;0.65;0.10;;;;;;;;;;5052313;28;20013;-67
2022/01/13 08:27:20;;;;;;;1.13;0.00;;;;;;;;;;5049100;28;20123;-67
2022/01/13 08:29:45;;;;;;;0.30;0.20;;;;;;;;;;5052312;28;20028;-67
2022/01/13 08:32:10;;;;;;;0.20;0.03;;;;;;;;;;5049731;28;20480;-66
2022/01/13 08:34:36;;;;;;;0.47;0.20;;;;;;;;;;5051815;28;20273;-67
2022/01/13 08:37:01;;;;;;;1.50;0.10;;;;;;;;;;5053560;28;20024;-67
2022/01/13 08:39:26;;;;;;;0.43;0.00;;;;;;;;;;5051476;28;20357;-68
2022/01/13 08:41:51;;;;;;;0.30;0.10;;;;;;;;;;5056073;28;20101;-67
2022/01/13 08:44:17;;;;;;;0.10;0.00;;;;;;;;;;5053734;28;20023;-67
2022/01/13 08:46:42;;;;;;;1.20;0.10;;;;;;;;;;5051503;28;20028;-66
2022/01/13 08:49:09;;;;;;;0.35;0.10;;;;;;;;;;5050944;28;20020;-68
2022/01/13 08:51:34;;;;;;;0.98;0.10;;;;;;;;;;5049681;28;20024;-66
2022/01/13 08:53:59;;;;;;;0.10;0.00;;;;;;;;;;5045935;28;20029;-67
2022/01/13 08:56:24;;;;;;;0.40;0.10;;;;;;;;;;5053675;28;20273;-67
2022/01/13 08:58:50;;;;;;;0.30;0.00;;;;;;;;;;5047218;28;20327;-67
2022/01/13 09:01:15;;;;;;;0.10;0.00;;;;;;;;;;5048873;28;20748;-66
2022/01/13 09:03:40;;;;;;;0.53;0.40;;;;;;;;;;5055457;28;20273;-66
2022/01/13 09:06:05;;;;;;;0.47;0.10;;;;;;;;;;5057260;28;20069;-67
2022/01/13 09:08:31;;;;;;;0.57;0.10;;;;;;;;;;5054244;28;20043;-67
2022/01/13 09:10:56;;;;;;;0.17;0.10;;;;;;;;;;5052103;28;20059;-67
2022/01/13 09:13:22;;;;;;;0.20;0.10;;;;;;;;;;5051394;28;20316;-68
2022/01/13 09:15:52;;;;;;;0.13;0.10;;;;;;;;;;5055406;28;20531;-67
2022/01/13 09:18:30;;;;;;;0.55;0.10;;;;;;;;;;5063199;28;20419;-69
2022/01/13 09:20:55;;;;;;;1.67;0.10;;;;;;;;;;5063813;28;20562;-67
2022/01/13 09:23:20;;;;;;;1.02;0.20;;;;;;;;;;5054500;28;20119;-68
2022/01/13 09:25:45;;;;;;;0.30;0.08;;;;;;;;;;5067402;28;20052;-67
2022/01/13 09:28:10;;;;;;;0.50;0.13;;;;;;;;;;5058289;28;20043;-67
2022/01/13 09:30:36;;;;;;;0.17;0.10;;;;;;;;;;5060002;28;20039;-68
2022/01/13 09:33:01;;;;;;;1.17;0.40;;;;;;;;;;5064574;28;20260;-67
2022/01/13 09:35:26;;;;;;;0.63;0.20;;;;;;;;;;5054603;28;20024;-68
2022/01/13 09:37:51;;;;;;;0.30;0.10;;;;;;;;;;5066435;28;20286;-68
2022/01/13 09:40:17;;;;;;;0.15;0.13;;;;;;;;;;5059364;28;20329;-67
2022/01/13 09:42:43;;;;;;;0.20;0.00;;;;;;;;;;5063454;28;20103;-68
2022/01/13 09:45:09;;;;;;;0.00;0.00;;;;;;;;;;5054544;28;20017;-68
2022/01/13 09:47:35;;;;;;;0.68;0.10;;;;;;;;;;5070824;28;20082;-67
2022/01/13 09:50:01;;;;;;;0.13;0.05;;;;;;;;;;5059736;28;20027;-68
2022/01/13 09:52:26;;;;;;;0.17;0.08;;;;;;;;;;5065263;28;20368;-68
2022/01/13 09:54:52;;;;;;;0.55;0.10;;;;;;;;;;5067392;28;20039;-68
2022/01/13 09:57:17;;;;;;;0.20;0.10;;;;;;;;;;5056996;28;20052;-69
2022/01/13 09:59:42;;;;;;;0.53;0.10;;;;;;;;;;5062735;28;20025;-68
2022/01/13 10:02:07;;;;;;;0.20;0.10;;;;;;;;;;5057693;28;20281;-69
2022/01/13 10:04:46;;;;;;;0.43;0.10;;;;;;;;;;5063639;28;20287;-69
2022/01/13 10:07:13;;;;;;;0.93;0.00;;;;;;;;;;5069254;28;20062;-67
2022/01/13 10:09:55;;;;;;;0.75;0.00;;;;;;;;;;5056445;28;20350;-67
2022/01/13 10:12:30;;;;;;;0.20;0.10;;;;;;;;;;5063675;28;20512;-68
2022/01/13 10:17:24;;;;;;;0.30;0.20;;;;;;;;;;5057338;28;20017;-68
2022/01/13 10:19:50;;;;;;;0.47;0.10;;;;;;;;;;5069337;28;20051;-69
2022/01/13 10:22:15;;;;;;;0.22;0.10;;;;;;;;;;5061545;28;20025;-67
2022/01/13 10:24:44;;;;;;;0.52;0.00;;;;;;;;;;5062889;28;20028;-67
2022/01/13 10:27:13;;;;;;;1.15;0.25;;;;;;;;;;5068970;28;20051;-67
2022/01/13 10:29:38;;;;;;;0.60;0.20;;;;;;;;;;5056674;28;20472;-67
2022/01/13 10:32:04;;;;;;;0.47;0.05;;;;;;;;;;5067088;28;20795;-67
2022/01/13 10:34:32;;;;;;;0.00;0.00;;;;;;;;;;5058182;28;20070;-67
2022/01/13 10:36:58;;;;;;;0.00;0.00;;;;;;;;;;5054538;28;20032;-67
2022/01/13 10:39:42;;;;;;;0.52;0.30;;;;;;;;;;5053262;28;20036;-68
2022/01/13 10:42:42;;;;;;;0.60;0.15;;;;;;;;;;5066348;28;20048;-67
2022/01/13 10:44:59;;;;;;;0.10;0.00;;;;;;;;;;5066663;28;20035;-67
2022/01/13 10:47:28;;;;;;;0.30;0.10;;;;;;;;;;5072878;28;20017;-68
2022/01/13 10:49:58;;;;;;;0.57;0.20;;;;;;;;;;5063640;28;20446;-68
2022/01/13 10:52:26;;;;;;;0.52;0.15;;;;;;;;;;5063600;28;20396;-67
2022/01/13 10:54:52;;;;;;;1.27;0.08;;;;;;;;;;5054093;28;20089;-68
2022/01/13 10:57:18;;;;;;;0.68;0.10;;;;;;;;;;5063896;28;20329;-67
2022/01/13 10:59:43;;;;;;;0.15;0.08;;;;;;;;;;5069244;28;20032;-68
2022/01/13 11:02:10;;;;;;;0.17;0.10;;;;;;;;;;5059812;28;20019;-67
2022/01/13 11:04:35;;;;;;;0.20;0.10;;;;;;;;;;5063135;28;20041;-67
2022/01/13 11:07:30;;;;;;;0.20;0.20;;;;;;;;;;5055250;28;20025;-67
2022/01/13 11:09:59;;;;;;;1.25;0.20;;;;;;;;;;4985488;28;20117;-67
2022/01/13 11:12:28;;;;;;;0.40;0.00;;;;;;;;;;4980789;28;20049;-67
2022/01/13 11:14:59;;;;;;;0.20;0.08;;;;;;;;;;4990777;28;20041;-67
2022/01/13 11:17:25;;;;;;;0.38;0.00;;;;;;;;;;4988808;28;20019;-69
2022/01/13 11:19:50;;;;;;;0.17;0.00;;;;;;;;;;4990520;28;20033;-67
2022/01/13 11:22:16;;;;;;;0.10;0.00;;;;;;;;;;4990980;28;20080;-69
2022/01/13 11:24:42;;;;;;;0.82;0.15;;;;;;;;;;4990910;28;20085;-68
2022/01/13 11:27:08;;;;;;;0.77;0.17;;;;;;;;;;4988698;28;20031;-68
2022/01/13 11:29:33;;;;;;;0.10;0.10;;;;;;;;;;4987189;28;20037;-68
2022/01/13 11:31:59;;;;;;;0.65;0.10;;;;;;;;;;4990843;28;20092;-68
2022/01/13 11:34:24;;;;;;;1.75;0.10;;;;;;;;;;4990514;28;20030;-68
2022/01/13 11:36:50;;;;;;;0.20;0.10;;;;;;;;;;4988919;28;20041;-67
2022/01/13 11:39:16;;;;;;;0.55;0.10;;;;;;;;;;4974459;28;20469;-67
2022/01/13 11:41:59;;;;;;;0.45;0.03;;;;;;;;;;4990078;28;20029;-66
2022/01/13 11:44:24;;;;;;;0.40;0.00;;;;;;;;;;4971048;28;20053;-67
2022/01/13 11:46:50;;;;;;;0.93;0.20;;;;;;;;;;5030578;28;20067;-67
2022/01/13 11:49:20;;;;;;;0.20;0.10;;;;;;;;;;5061978;28;20070;-67
2022/01/13 11:51:55;;;;;;;0.10;0.00;;;;;;;;;;5051874;28;20040;-65
2022/01/13 11:54:25;;;;;;;1.02;0.17;;;;;;;;;;5053469;28;20016;-66
2022/01/13 11:57:09;;;;;;;1.45;0.30;;;;;;;;;;5064696;28;20020;-67
2022/01/13 11:59:34;;;;;;;0.10;0.10;;;;;;;;;;5054427;28;20027;-66
2022/01/13 12:02:18;;;;;;;0.98;0.00;;;;;;;;;;5063289;28;20032;-66
2022/01/13 12:05:02;;;;;;;0.25;0.10;;;;;;;;;;5070589;28;20131;-66
2022/01/13 12:07:37;;;;;;;0.75;0.10;;;;;;;;;;5062720;28;20052;-68
2022/01/13 12:10:04;;;;;;;0.73;0.10;;;;;;;;;;5065197;28;20017;-67
2022/01/13 12:12:30;;;;;;;0.10;0.10;;;;;;;;;;5060440;28;20012;-67
2022/01/13 12:15:14;;;;;;;0.50;0.22;;;;;;;;;;5061702;28;20122;-66
2022/01/13 12:17:47;;;;;;;0.28;0.13;;;;;;;;;;5055671;28;20277;-66
2022/01/13 12:20:39;;;;;;;0.43;0.00;;;;;;;;;;5054790;28;20016;-66
2022/01/13 12:23:16;;;;;;;0.60;0.10;;;;;;;;;;5054846;28;20403;-66
2022/01/13 12:25:41;;;;;;;1.48;0.20;;;;;;;;;;5053502;28;20020;-67
2022/01/13 12:28:11;;;;;;;0.30;0.00;;;;;;;;;;5051056;28;20465;-66
2022/01/13 12:30:36;;;;;;;0.32;0.00;;;;;;;;;;5053216;28;20040;-66
2022/01/13 12:33:03;;;;;;;0.52;0.20;;;;;;;;;;5054031;28;20017;-67
2022/01/13 12:35:34;;;;;;;0.20;0.10;;;;;;;;;;5055776;28;20111;-66
2022/01/13 12:38:07;;;;;;;0.68;0.22;;;;;;;;;;5051814;28;20411;-66
2022/01/13 12:40:40;;;;;;;0.45;0.10;;;;;;;;;;5056995;28;20480;-66
2022/01/13 12:46:05;;;;;;;0.60;0.17;;;;;;;;;;5049993;28;20392;-66
2022/01/13 12:48:30;;;;;;;0.30;0.22;;;;;;;;;;5054385;28;20063;-67
2022/01/13 12:50:57;;;;;;;0.10;0.10;;;;;;;;;;5054675;28;20400;-66
2022/01/13 12:53:25;;;;;;;0.30;0.00;;;;;;;;;;5052879;28;20012;-65
2022/01/13 12:55:55;;;;;;;0.20;0.10;;;;;;;;;;5051046;28;20036;-66
2022/01/13 12:58:24;;;;;;;0.38;0.10;;;;;;;;;;5061011;28;20013;-66
2022/01/13 13:00:49;;;;;;;0.73;0.20;;;;;;;;;;5054024;28;20021;-66
2022/01/13 13:03:15;;;;;;;0.95;0.10;;;;;;;;;;5054762;28;20013;-68
2022/01/13 13:05:44;;;;;;;1.08;0.13;;;;;;;;;;5051338;28;20044;-67
2022/01/13 13:08:11;;;;;;;0.28;0.10;;;;;;;;;;5051572;28;20454;-67
2022/01/13 13:10:36;;;;;;;0.28;0.00;;;;;;;;;;5052181;28;20051;-66
2022/01/13 13:13:02;;;;;;;0.20;0.20;;;;;;;;;;5053192;28;20512;-66
2022/01/13 13:17:54;;;;;;;0.40;0.15;;;;;;;;;;5054251;28;20017;-66
2022/01/13 13:20:25;;;;;;;0.10;0.10;;;;;;;;;;5054185;28;20333;-68
2022/01/13 13:22:51;;;;;;;0.43;0.00;;;;;;;;;;5055124;28;20017;-66
2022/01/13 13:25:29;;;;;;;0.50;0.10;;;;;;;;;;5054472;28;20033;-67
2022/01/13 13:27:55;;;;;;;0.22;0.00;;;;;;;;;;5053373;28;20024;-65
2022/01/13 13:30:20;;;;;;;0.40;0.10;;;;;;;;;;5055000;28;20543;-67
2022/01/13 13:32:52;;;;;;;0.32;0.10;;;;;;;;;;5055422;28;20032;-67
2022/01/13 13:35:18;;;;;;;0.38;0.10;;;;;;;;;;5060040;28;20096;-67
2022/01/13 13:37:44;;;;;;;0.20;0.10;;;;;;;;;;5054418;28;20476;-66
2022/01/13 13:40:19;;;;;;;0.20;0.10;;;;;;;;;;5054441;28;20446;-66
2022/01/13 13:42:44;;;;;;;0.57;0.10;;;;;;;;;;5054258;28;20100;-66
2022/01/13 13:45:10;;;;;;;0.53;0.10;;;;;;;;;;5063657;28;20107;-66
2022/01/13 13:47:35;;;;;;;0.75;0.10;;;;;;;;;;5055620;28;20416;-67
2022/01/13 13:50:01;;;;;;;1.40;0.10;;;;;;;;;;5055073;28;20447;-66
2022/01/13 13:52:26;;;;;;;0.10;0.00;;;;;;;;;;5055294;28;20588;-68
2022/01/13 13:54:55;;;;;;;0.20;0.00;;;;;;;;;;5066416;28;20025;-65
2022/01/13 13:57:21;;;;;;;0.10;0.10;;;;;;;;;;5060480;28;20293;-67
2022/01/13 13:59:50;;;;;;;0.28;0.00;;;;;;;;;;5063502;28;20051;-66
2022/01/13 14:02:17;;;;;;;0.32;0.20;;;;;;;;;;5056155;28;20479;-66
2022/01/13 14:04:45;;;;;;;0.47;0.05;;;;;;;;;;5051494;28;20037;-66
2022/01/13 14:07:24;;;;;;;0.22;0.10;;;;;;;;;;5067436;28;20017;-66
2022/01/13 14:10:13;;;;;;;0.17;0.10;;;;;;;;;;5072938;28;20021;-67
2022/01/13 14:12:42;;;;;;;0.00;0.00;;;;;;;;;;5048819;28;20029;-66
2022/01/13 14:15:14;;;;;;;0.45;0.03;;;;;;;;;;5052714;28;20107;-67
2022/01/13 14:17:39;;;;;;;0.55;0.30;;;;;;;;;;5054130;28;20025;-67
2022/01/13 14:20:09;;;;;;;0.20;0.05;;;;;;;;;;5053077;28;20078;-67
2022/01/13 14:22:34;;;;;;;1.63;0.10;;;;;;;;;;5058748;28;20025;-67
2022/01/13 14:25:00;;;;;;;0.57;0.17;;;;;;;;;;5065292;28;20025;-68
2022/01/13 14:27:26;;;;;;;0.35;0.10;;;;;;;;;;5052427;28;20639;-67
2022/01/13 14:29:52;;;;;;;1.10;0.45;;;;;;;;;;5066492;28;20013;-65
2022/01/13 14:32:25;;;;;;;0.40;0.10;;;;;;;;;;5073984;28;20066;-66
2022/01/13 14:34:51;;;;;;;0.13;0.00;;;;;;;;;;5054263;28;20028;-66
2022/01/13 14:37:17;;;;;;;0.65;0.03;;;;;;;;;;5053625;28;20017;-66
2022/01/13 14:39:42;;;;;;;1.05;0.57;;;;;;;;;;5053020;28;20571;-66
2022/01/13 14:42:11;;;;;;;0.95;0.30;;;;;;;;;;5053484;28;20131;-66
2022/01/13 14:44:37;;;;;;;0.10;0.10;;;;;;;;;;5053532;28;20021;-66
2022/01/13 14:47:06;;;;;;;0.10;0.10;;;;;;;;;;5053107;28;20029;-68
2022/01/13 14:49:34;;;;;;;0.88;0.10;;;;;;;;;;5050034;28;20013;-66
2022/01/13 14:52:01;;;;;;;0.90;0.10;;;;;;;;;;5051612;28;20147;-66
2022/01/13 14:54:26;;;;;;;0.15;0.05;;;;;;;;;;5052786;28;20013;-66
2022/01/13 14:56:51;;;;;;;0.85;0.17;;;;;;;;;;5053405;28;20029;-66
2022/01/13 14:59:16;;;;;;;0.10;0.03;;;;;;;;;;5052715;28;20017;-66
2022/01/13 15:01:45;;;;;;;0.93;0.55;;;;;;;;;;5057399;28;20257;-66
2022/01/13 15:04:11;;;;;;;0.15;0.10;;;;;;;;;;5058495;28;20044;-66
2022/01/13 15:06:36;;;;;;;0.20;0.10;;;;;;;;;;5056730;28;20024;-66
2022/01/13 15:09:02;;;;;;;0.00;0.00;;;;;;;;;;5061434;28;20020;-65